createdAt,value
2018-06-17T00:01:30.777Z,9.90
2018-06-17T00:04:05.010Z,12.60
2018-06-17T00:06:39.367Z,11.87
2018-06-17T00:09:13.620Z,8.77
2018-06-17T00:11:48.081Z,11.70
2018-06-17T00:14:22.598Z,13.07
2018-06-17T00:16:56.878Z,13.10
2018-06-17T00:19:31.075Z,11.10
2018-06-17T00:22:05.302Z,15.90
2018-06-17T00:24:39.631Z,16.43
2018-06-17T00:27:13.999Z,14.37
2018-06-17T00:29:48.313Z,12.57
2018-06-17T00:32:22.531Z,14.23
2018-06-17T00:34:56.982Z,9.40
2018-06-17T00:37:31.281Z,12.17
2018-06-17T00:40:05.482Z,12.27
2018-06-17T00:42:39.830Z,11.27
2018-06-17T00:45:14.184Z,13.33
2018-06-17T00:47:48.487Z,11.00
2018-06-17T00:50:22.767Z,12.80
2018-06-17T00:52:57.010Z,14.03
2018-06-17T00:55:31.380Z,15.20
2018-06-17T00:58:05.720Z,10.23
2018-06-17T01:00:40.154Z,15.03
2018-06-17T01:03:14.483Z,10.53
2018-06-17T01:05:48.845Z,11.80
2018-06-17T01:08:23.133Z,12.27
2018-06-17T01:10:57.462Z,12.47
2018-06-17T01:13:31.644Z,13.53
2018-06-17T01:16:06.056Z,14.77
2018-06-17T01:18:40.348Z,10.63
2018-06-17T01:21:14.620Z,16.67
2018-06-17T01:23:48.999Z,10.03
2018-06-17T01:26:23.282Z,14.90
2018-06-17T01:28:57.646Z,12.27
2018-06-17T01:31:31.844Z,12.67
2018-06-17T01:34:06.243Z,11.37
2018-06-17T01:36:40.582Z,11.80
2018-06-17T01:39:14.906Z,12.07
2018-06-17T01:41:49.172Z,11.03
2018-06-17T01:44:23.554Z,12.27
2018-06-17T01:46:57.872Z,10.93
2018-06-17T01:49:32.086Z,11.03
2018-06-17T01:52:06.420Z,11.47
2018-06-17T01:54:40.645Z,9.17
2018-06-17T01:57:14.793Z,10.87
2018-06-17T01:59:49.026Z,13.83
2018-06-17T02:02:23.357Z,13.03
2018-06-17T02:05:03.111Z,14.70
2018-06-17T02:07:42.777Z,14.47
2018-06-17T02:10:22.515Z,14.97
2018-06-17T02:12:56.694Z,20.67
2018-06-17T02:15:31.045Z,19.63
2018-06-17T02:18:05.365Z,19.30
2018-06-17T02:20:39.587Z,14.93
2018-06-17T02:23:13.903Z,19.83
2018-06-17T02:25:48.335Z,17.83
2018-06-17T02:28:22.626Z,22.53
2018-06-17T02:30:56.787Z,20.83
2018-06-17T02:33:31.066Z,19.63
2018-06-17T02:36:05.485Z,21.50
2018-06-17T02:38:39.642Z,18.27
2018-06-17T02:41:14.091Z,18.23
2018-06-17T02:43:48.393Z,17.50
2018-06-17T02:46:28.267Z,20.60
2018-06-17T02:49:07.924Z,16.33
2018-06-17T02:51:47.453Z,19.03
2018-06-17T02:54:26.982Z,21.37
2018-06-17T02:57:01.144Z,17.50
2018-06-17T02:59:35.410Z,21.93
2018-06-17T03:02:09.996Z,20.40
2018-06-17T03:04:44.325Z,20.57
2018-06-17T03:07:18.467Z,20.23
2018-06-17T03:09:52.922Z,20.20
2018-06-17T03:12:27.181Z,18.93
2018-06-17T03:15:01.431Z,22.20
2018-06-17T03:17:35.793Z,21.37
2018-06-17T03:20:10.044Z,18.80
2018-06-17T03:22:44.266Z,20.63
2018-06-17T03:25:24.066Z,23.07
2018-06-17T03:28:03.593Z,27.40
2018-06-17T03:30:43.350Z,23.97
2018-06-17T03:33:22.933Z,28.70
2018-06-17T03:36:02.515Z,19.73
2018-06-17T03:38:36.738Z,23.77
2018-06-17T03:41:11.999Z,28.73
2018-06-17T03:43:46.192Z,24.10
2018-06-17T03:46:20.489Z,27.40
2018-06-17T03:48:54.780Z,21.47
2018-06-17T03:51:29.200Z,25.97
2018-06-17T03:54:03.422Z,28.93
2018-06-17T03:56:37.808Z,25.13
2018-06-17T03:59:11.989Z,27.50
2018-06-17T04:01:46.443Z,22.57
2018-06-17T04:04:22.582Z,28.30
2018-06-17T04:06:56.774Z,23.33
2018-06-17T04:09:31.137Z,20.97
2018-06-17T04:12:05.459Z,26.63
2018-06-17T04:14:40.060Z,21.03
2018-06-17T04:17:15.114Z,24.63
2018-06-17T04:19:49.415Z,22.20
2018-06-17T04:22:23.750Z,29.30
2018-06-17T04:24:57.999Z,25.90
2018-06-17T04:27:32.459Z,23.13
2018-06-17T04:30:06.713Z,21.17
2018-06-17T04:32:40.942Z,20.93
2018-06-17T04:35:15.114Z,26.20
2018-06-17T04:37:49.401Z,21.53
2018-06-17T04:40:23.753Z,22.50
2018-06-17T04:42:58.039Z,21.20
2018-06-17T04:45:32.476Z,21.73
2018-06-17T04:48:06.778Z,22.83
2018-06-17T04:50:40.991Z,21.50
2018-06-17T04:53:15.149Z,16.47
2018-06-17T04:55:49.551Z,20.23
2018-06-17T04:58:24.007Z,19.47
2018-06-17T05:00:58.223Z,21.20
2018-06-17T05:03:32.459Z,17.70
2018-06-17T05:06:06.786Z,21.57
2018-06-17T05:08:41.117Z,23.00
2018-06-17T05:11:15.395Z,15.63
2018-06-17T05:13:49.797Z,17.77
2018-06-17T05:16:23.998Z,16.50
2018-06-17T05:18:58.207Z,18.50
2018-06-17T05:21:32.602Z,18.33
2018-06-17T05:24:06.941Z,19.83
2018-06-17T05:26:41.201Z,15.30
2018-06-17T05:29:15.461Z,16.03
2018-06-17T05:31:49.955Z,15.43
2018-06-17T05:34:24.388Z,18.87
2018-06-17T05:36:58.578Z,17.73
2018-06-17T05:39:32.918Z,23.73
2018-06-17T05:42:07.006Z,18.40
2018-06-17T05:44:41.227Z,18.93
2018-06-17T05:47:15.447Z,16.93
2018-06-17T05:49:49.653Z,16.20
2018-06-17T05:52:23.926Z,16.97
2018-06-17T05:54:58.151Z,13.57
2018-06-17T05:57:32.615Z,15.47
2018-06-17T06:00:07.019Z,14.93
2018-06-17T06:02:41.296Z,12.37
2018-06-17T06:05:15.421Z,13.37
2018-06-17T06:07:49.618Z,9.47
2018-06-17T06:10:23.998Z,12.63
2018-06-17T06:12:58.307Z,11.60
2018-06-17T06:15:32.590Z,17.30
2018-06-17T06:18:06.797Z,9.33
2018-06-17T06:20:41.170Z,12.03
2018-06-17T06:23:15.486Z,11.90
2018-06-17T06:25:49.751Z,11.80
2018-06-17T06:28:24.073Z,12.97
2018-06-17T06:30:58.389Z,13.13
2018-06-17T06:33:32.571Z,11.60
2018-06-17T06:36:06.893Z,13.90
2018-06-17T06:38:41.237Z,9.13
2018-06-17T06:41:15.573Z,10.93
2018-06-17T06:43:49.855Z,6.80
2018-06-17T06:46:24.091Z,5.37
2018-06-17T06:48:58.449Z,8.20
2018-06-17T06:51:32.720Z,8.80
2018-06-17T06:54:06.911Z,11.07
2018-06-17T06:56:41.101Z,6.67
2018-06-17T06:59:15.333Z,5.23
2018-06-17T07:02:01.048Z,7.07
2018-06-17T07:04:46.799Z,6.50
2018-06-17T07:07:32.703Z,8.87
2018-06-17T07:10:12.461Z,9.10
2018-06-17T07:12:46.676Z,5.43
2018-06-17T07:15:32.536Z,9.10
2018-06-17T07:18:18.090Z,7.20
2018-06-17T07:20:52.347Z,4.93
2018-06-17T07:23:26.610Z,4.77
2018-06-17T07:26:40.639Z,4.00
2018-06-17T07:29:28.590Z,7.17
2018-06-17T07:32:02.882Z,10.20
2018-06-17T07:34:37.188Z,5.77
2018-06-17T07:37:11.420Z,8.10
2018-06-17T07:40:50.174Z,5.80
2018-06-17T07:43:24.452Z,6.60
2018-06-17T07:45:58.782Z,6.87
2018-06-17T07:49:46.666Z,5.83
2018-06-17T07:52:33.568Z,6.37
2018-06-17T07:55:07.839Z,5.90
2018-06-17T07:57:42.171Z,10.33
2018-06-17T08:00:16.434Z,7.53
2018-06-17T08:02:50.821Z,5.87
2018-06-17T08:05:25.124Z,7.20
2018-06-17T08:07:59.166Z,5.53
2018-06-17T08:10:33.518Z,9.47
2018-06-17T08:13:07.878Z,5.60
2018-06-17T08:15:42.190Z,5.00
2018-06-17T08:18:16.486Z,6.03
2018-06-17T08:20:50.778Z,6.40
2018-06-17T08:23:24.923Z,7.20
2018-06-17T08:25:59.161Z,3.87
2018-06-17T08:28:33.354Z,7.20
2018-06-17T08:31:07.791Z,4.43
2018-06-17T08:33:42.149Z,5.90
2018-06-17T08:36:16.322Z,3.77
2018-06-17T08:38:50.651Z,3.30
2018-06-17T08:41:24.926Z,4.50
2018-06-17T08:43:59.384Z,6.27
2018-06-17T08:46:33.699Z,5.57
2018-06-17T08:49:07.943Z,4.57
2018-06-17T08:51:42.269Z,3.77
2018-06-17T08:54:16.645Z,4.23
2018-06-17T08:56:50.928Z,4.07
2018-06-17T08:59:25.151Z,3.70
2018-06-17T09:01:59.588Z,2.83
2018-06-17T09:04:33.887Z,4.27
2018-06-17T09:07:08.246Z,3.70
2018-06-17T09:09:42.521Z,6.27
2018-06-17T09:12:16.855Z,4.47
2018-06-17T09:14:50.982Z,3.53
2018-06-17T09:17:25.167Z,5.30
2018-06-17T09:19:59.526Z,2.33
2018-06-17T09:22:33.856Z,3.53
2018-06-17T09:25:08.261Z,9.67
2018-06-17T09:27:42.554Z,7.73
2018-06-17T09:30:16.843Z,4.13
2018-06-17T09:32:51.310Z,7.00
2018-06-17T09:35:25.671Z,5.27
2018-06-17T09:37:59.869Z,3.80
2018-06-17T09:40:34.278Z,4.30
2018-06-17T09:43:08.611Z,5.17
2018-06-17T09:45:42.831Z,6.83
2018-06-17T09:48:17.359Z,4.17
2018-06-17T09:50:51.730Z,2.87
2018-06-17T09:53:26.255Z,2.67
2018-06-17T09:56:00.558Z,6.17
2018-06-17T09:58:35.031Z,7.13
2018-06-17T10:01:09.195Z,6.67
2018-06-17T10:03:43.567Z,3.10
2018-06-17T10:06:17.754Z,5.00
2018-06-17T10:08:52.126Z,3.53
2018-06-17T10:11:26.543Z,5.03
2018-06-17T10:14:00.770Z,4.37
2018-06-17T10:16:35.131Z,3.87
2018-06-17T10:19:09.465Z,4.30
2018-06-17T10:21:43.771Z,5.47
2018-06-17T10:24:17.946Z,4.43
2018-06-17T10:26:52.159Z,5.57
2018-06-17T10:29:26.588Z,5.67
2018-06-17T10:32:00.890Z,4.23
2018-06-17T10:34:35.155Z,4.57
2018-06-17T10:37:09.497Z,5.33
2018-06-17T10:39:43.819Z,9.63
2018-06-17T10:42:18.119Z,7.23
2018-06-17T10:44:52.350Z,3.67
2018-06-17T10:47:26.828Z,3.13
2018-06-17T10:50:01.143Z,5.20
2018-06-17T10:52:35.499Z,5.30
2018-06-17T10:55:10.531Z,4.13
2018-06-17T10:57:45.858Z,6.77
2018-06-17T11:00:20.188Z,3.17
2018-06-17T11:02:54.504Z,6.97
2018-06-17T11:05:28.851Z,3.97
2018-06-17T11:08:03.088Z,4.67
2018-06-17T11:10:37.483Z,3.80
2018-06-17T11:13:11.816Z,4.07
2018-06-17T11:15:46.162Z,6.50
2018-06-17T11:18:20.538Z,4.63
2018-06-17T11:20:54.686Z,8.83
2018-06-17T11:23:28.986Z,6.13
2018-06-17T11:26:03.305Z,6.63
2018-06-17T11:28:37.602Z,6.20
2018-06-17T11:31:11.942Z,6.17
2018-06-17T11:33:46.303Z,6.30
2018-06-17T11:36:20.522Z,6.70
2018-06-17T11:38:54.763Z,4.63
2018-06-17T11:41:29.023Z,7.43
2018-06-17T11:44:03.343Z,7.80
2018-06-17T11:46:37.758Z,7.20
2018-06-17T11:49:12.416Z,5.40
2018-06-17T11:51:46.886Z,5.77
2018-06-17T11:54:21.037Z,6.50
2018-06-17T11:56:55.180Z,6.33
2018-06-17T11:59:29.607Z,6.20
2018-06-17T12:02:03.963Z,5.10
2018-06-17T12:04:38.335Z,3.50
2018-06-17T12:07:12.602Z,6.73
2018-06-17T12:09:46.912Z,8.63
2018-06-17T12:12:21.191Z,7.03
2018-06-17T12:14:55.514Z,5.50
2018-06-17T12:17:29.653Z,5.60
2018-06-17T12:20:04.016Z,6.97
2018-06-17T12:22:38.273Z,3.67
2018-06-17T12:25:12.432Z,9.43
2018-06-17T12:27:46.932Z,4.60
2018-06-17T12:30:21.295Z,6.97
2018-06-17T12:32:55.598Z,4.87
2018-06-17T12:35:29.786Z,4.67
2018-06-17T12:38:04.188Z,3.77
2018-06-17T12:40:38.489Z,3.70
2018-06-17T12:43:12.746Z,6.07
2018-06-17T12:45:47.214Z,39.60
2018-06-17T12:48:21.387Z,8.77
2018-06-17T12:50:55.722Z,4.97
2018-06-17T12:53:30.060Z,7.40
2018-06-17T12:56:04.291Z,4.30
2018-06-17T12:58:38.610Z,4.17
2018-06-17T13:01:12.920Z,8.90
2018-06-17T13:03:47.162Z,3.37
2018-06-17T13:06:21.546Z,5.93
2018-06-17T13:08:55.882Z,5.40
2018-06-17T13:11:30.211Z,4.87
2018-06-17T13:14:04.551Z,5.27
2018-06-17T13:16:38.841Z,6.57
2018-06-17T13:19:13.159Z,4.70
2018-06-17T13:21:47.402Z,7.10
2018-06-17T13:24:21.726Z,7.73
2018-06-17T13:26:55.820Z,5.67
2018-06-17T13:29:29.962Z,5.97
2018-06-17T13:32:04.200Z,3.90
2018-06-17T13:34:38.499Z,5.03
2018-06-17T13:37:12.918Z,12.57
2018-06-17T13:39:47.205Z,9.53
2018-06-17T13:42:21.501Z,5.07
2018-06-17T13:44:55.815Z,4.07
2018-06-17T13:47:30.121Z,6.07
2018-06-17T13:50:04.783Z,6.30
2018-06-17T13:52:39.170Z,9.93
2018-06-17T13:55:13.374Z,7.43
2018-06-17T13:57:47.693Z,10.30
2018-06-17T14:00:21.925Z,5.50
2018-06-17T14:02:56.212Z,14.90
2018-06-17T14:05:30.458Z,4.40
2018-06-17T14:08:04.622Z,5.83
2018-06-17T14:10:38.890Z,5.23
2018-06-17T14:13:13.159Z,5.87
2018-06-17T14:15:47.419Z,5.53
2018-06-17T14:18:21.744Z,9.30
2018-06-17T14:20:55.900Z,5.27
2018-06-17T14:23:30.345Z,9.77
2018-06-17T14:26:04.622Z,7.90
2018-06-17T14:28:38.821Z,3.90
2018-06-17T14:31:13.142Z,6.13
2018-06-17T14:33:47.440Z,8.60
2018-06-17T14:36:21.717Z,8.00
2018-06-17T14:38:56.090Z,4.60
2018-06-17T14:41:30.416Z,6.70
2018-06-17T14:44:10.188Z,7.37
2018-06-17T14:46:49.723Z,4.43
2018-06-17T14:49:29.390Z,9.97
2018-06-17T14:52:06.738Z,10.47
2018-06-17T14:54:41.015Z,7.87
2018-06-17T14:57:15.290Z,14.27
2018-06-17T14:59:49.530Z,18.67
2018-06-17T15:02:23.923Z,5.43
2018-06-17T15:04:58.230Z,11.60
2018-06-17T15:07:32.676Z,7.57
2018-06-17T15:10:06.883Z,8.33
2018-06-17T15:12:41.187Z,5.20
2018-06-17T15:15:15.433Z,3.73
2018-06-17T15:17:49.827Z,5.47
2018-06-17T15:20:23.873Z,6.80
2018-06-17T15:22:58.096Z,4.90
2018-06-17T15:25:32.403Z,7.73
2018-06-17T15:28:06.584Z,8.73
2018-06-17T15:30:40.858Z,6.57
2018-06-17T15:33:20.740Z,4.00
2018-06-17T15:36:00.457Z,3.97
2018-06-17T15:38:40.067Z,6.70
2018-06-17T15:41:30.711Z,4.30
2018-06-17T15:44:05.019Z,10.67
2018-06-17T15:46:39.306Z,9.20
2018-06-17T15:49:13.507Z,8.90
2018-06-17T15:51:47.799Z,7.53
2018-06-17T15:54:22.118Z,4.73
2018-06-17T15:56:56.400Z,5.47
2018-06-17T15:59:30.792Z,6.93
2018-06-17T16:02:04.964Z,7.67
2018-06-17T16:04:39.242Z,4.17
2018-06-17T16:07:13.530Z,6.77
2018-06-17T16:09:47.857Z,7.10
2018-06-17T16:12:27.690Z,6.50
2018-06-17T16:15:07.242Z,5.97
2018-06-17T16:17:46.948Z,7.07
2018-06-17T16:20:26.555Z,4.30
2018-06-17T16:23:00.958Z,5.73
2018-06-17T16:25:35.379Z,5.83
2018-06-17T16:28:09.641Z,6.67
2018-06-17T16:30:43.937Z,7.10
2018-06-17T16:33:18.365Z,5.70
2018-06-17T16:35:52.795Z,7.03
2018-06-17T16:38:27.200Z,6.43
2018-06-17T16:41:01.511Z,8.60
2018-06-17T16:43:35.858Z,4.40
2018-06-17T16:46:10.177Z,5.83
2018-06-17T16:48:44.334Z,4.57
2018-06-17T16:51:24.106Z,7.67
2018-06-17T16:54:03.714Z,5.63
2018-06-17T16:56:43.238Z,8.03
2018-06-17T16:59:22.818Z,7.37
2018-06-17T17:01:57.027Z,39.47
2018-06-17T17:04:31.420Z,24.10
2018-06-17T17:07:05.679Z,18.83
2018-06-17T17:09:39.859Z,16.03
2018-06-17T17:12:14.201Z,14.30
2018-06-17T17:14:48.398Z,13.57
2018-06-17T17:17:22.677Z,22.97
2018-06-17T17:19:56.909Z,22.73
2018-06-17T17:22:31.125Z,5.47
2018-06-17T17:25:05.438Z,8.70
2018-06-17T17:27:39.688Z,6.43
2018-06-17T17:30:13.999Z,8.00
2018-06-17T17:32:53.699Z,9.40
2018-06-17T17:35:33.451Z,9.50
2018-06-17T17:38:13.046Z,7.50
2018-06-17T17:40:52.289Z,9.00
2018-06-17T17:43:26.789Z,7.83
2018-06-17T17:46:06.458Z,5.80
2018-06-17T17:48:40.707Z,3.80
2018-06-17T17:51:15.042Z,4.60
2018-06-17T17:53:49.544Z,5.87
2018-06-17T17:56:23.830Z,8.23
2018-06-17T17:58:58.232Z,7.87
2018-06-17T18:01:32.471Z,11.50
2018-06-17T18:04:06.762Z,9.60
2018-06-17T18:06:41.002Z,6.60
2018-06-17T18:09:15.310Z,7.20
2018-06-17T18:11:49.656Z,5.97
2018-06-17T18:14:23.977Z,5.93
2018-06-17T18:16:58.368Z,17.80
2018-06-17T18:19:32.727Z,7.43
2018-06-17T18:22:07.087Z,5.37
2018-06-17T18:24:41.317Z,7.23
2018-06-17T18:27:20.955Z,7.50
2018-06-17T18:30:00.543Z,10.00
2018-06-17T18:32:40.135Z,5.90
2018-06-17T18:35:20.006Z,5.67
2018-06-17T18:37:54.210Z,5.67
2018-06-17T18:40:28.526Z,6.37
2018-06-17T18:43:02.917Z,7.93
2018-06-17T18:45:37.044Z,4.87
2018-06-17T18:48:17.084Z,5.23
2018-06-17T18:50:51.375Z,8.30
2018-06-17T18:53:26.106Z,7.03
2018-06-17T18:56:00.244Z,8.83
2018-06-17T18:58:34.423Z,11.10
2018-06-17T19:01:08.575Z,6.17
2018-06-17T19:03:42.725Z,7.60
2018-06-17T19:06:17.004Z,7.77
2018-06-17T19:08:56.561Z,5.80
2018-06-17T19:11:36.055Z,7.03
2018-06-17T19:14:15.778Z,5.63
2018-06-17T19:16:55.215Z,7.13
2018-06-17T19:19:29.387Z,6.13
2018-06-17T19:22:03.754Z,5.13
2018-06-17T19:24:37.941Z,6.23
2018-06-17T19:27:12.262Z,5.10
2018-06-17T19:29:46.666Z,5.67
2018-06-17T19:32:20.867Z,6.87
2018-06-17T19:34:55.106Z,8.20
2018-06-17T19:37:29.041Z,8.37
2018-06-17T19:40:03.193Z,5.63
2018-06-17T19:42:37.470Z,5.37
2018-06-17T19:45:11.898Z,4.73
2018-06-17T19:47:46.239Z,5.00
2018-06-17T19:50:25.884Z,10.40
2018-06-17T19:53:05.558Z,6.33
2018-06-17T19:55:45.390Z,5.87
2018-06-17T19:58:25.118Z,10.80
2018-06-17T20:01:01.110Z,4.93
2018-06-17T20:03:35.406Z,7.37
2018-06-17T20:06:09.751Z,7.57
2018-06-17T20:08:43.942Z,10.97
2018-06-17T20:11:18.270Z,9.67
2018-06-17T20:13:52.691Z,11.20
2018-06-17T20:16:26.941Z,10.43
2018-06-17T20:19:01.145Z,7.53
2018-06-17T20:21:35.454Z,8.87
2018-06-17T20:24:09.815Z,5.83
2018-06-17T20:26:44.142Z,5.60
2018-06-17T20:29:18.629Z,4.07
2018-06-17T20:31:58.190Z,11.30
2018-06-17T20:34:37.908Z,9.10
2018-06-17T20:37:17.435Z,8.40
2018-06-17T20:39:56.950Z,11.17
2018-06-17T20:42:36.385Z,6.43
2018-06-17T20:45:10.754Z,7.53
2018-06-17T20:47:45.007Z,7.93
2018-06-17T20:50:19.441Z,8.50
2018-06-17T20:52:53.729Z,5.83
2018-06-17T20:55:28.031Z,6.53
2018-06-17T20:58:02.345Z,9.37
2018-06-17T21:00:36.686Z,10.03
2018-06-17T21:03:10.893Z,9.27
2018-06-17T21:05:45.273Z,8.27
2018-06-17T21:08:19.570Z,7.63
2018-06-17T21:10:53.766Z,9.07
2018-06-17T21:13:28.934Z,8.73
2018-06-17T21:16:03.282Z,7.33
2018-06-17T21:20:49.802Z,6.00
2018-06-17T21:23:29.490Z,9.10
2018-06-17T21:26:09.188Z,10.47
2018-06-17T21:28:43.367Z,7.70
2018-06-17T21:31:17.653Z,8.20
2018-06-17T21:33:51.924Z,9.40
2018-06-17T21:36:26.317Z,10.07
2018-06-17T21:39:00.595Z,10.63
2018-06-17T21:41:35.374Z,7.13
2018-06-17T21:44:10.093Z,7.97
2018-06-17T21:46:44.402Z,7.00
2018-06-17T21:49:18.688Z,6.27
2018-06-17T21:51:52.995Z,5.97
2018-06-17T21:54:27.290Z,4.97
2018-06-17T21:57:01.719Z,7.27
2018-06-17T21:59:36.006Z,9.47
2018-06-17T22:02:10.176Z,5.10
2018-06-17T22:04:44.551Z,7.20
2018-06-17T22:07:18.857Z,8.03
2018-06-17T22:09:58.977Z,6.03
2018-06-17T22:12:38.674Z,6.13
2018-06-17T22:15:18.067Z,9.20
2018-06-17T22:17:53.141Z,4.87
2018-06-17T22:20:27.425Z,8.60
2018-06-17T22:23:01.830Z,6.17
2018-06-17T22:25:36.083Z,8.93
2018-06-17T22:28:10.367Z,6.07
2018-06-17T22:30:44.594Z,7.57
2018-06-17T22:33:18.902Z,7.23
2018-06-17T22:35:53.066Z,7.50
2018-06-17T22:38:27.456Z,9.00
2018-06-17T22:41:01.675Z,7.30
2018-06-17T22:43:36.106Z,4.93
2018-06-17T22:46:10.467Z,14.33
2018-06-17T22:48:44.647Z,11.77
2018-06-17T22:51:18.942Z,8.33
2018-06-17T22:54:04.627Z,10.37
2018-06-17T22:56:44.077Z,13.27
2018-06-17T22:59:23.888Z,13.40
2018-06-17T23:02:03.511Z,11.40
2018-06-17T23:04:43.066Z,11.20
2018-06-17T23:07:22.843Z,9.63
2018-06-17T23:09:57.030Z,6.60
2018-06-17T23:12:31.292Z,8.97
2018-06-17T23:15:05.917Z,9.63
2018-06-17T23:17:40.062Z,7.60
2018-06-17T23:20:14.488Z,5.17
2018-06-17T23:22:48.866Z,8.23
2018-06-17T23:25:23.176Z,6.93
2018-06-17T23:27:57.463Z,11.13
2018-06-17T23:30:31.661Z,5.57
2018-06-17T23:33:05.862Z,7.63
2018-06-17T23:35:40.263Z,15.33
2018-06-17T23:38:14.730Z,11.60
2018-06-17T23:40:48.948Z,9.57
2018-06-17T23:43:23.278Z,7.63
2018-06-17T23:46:02.930Z,9.23
2018-06-17T23:48:42.510Z,10.60
2018-06-17T23:51:22.037Z,14.33
2018-06-17T23:54:01.710Z,9.30
2018-06-17T23:56:35.881Z,9.57
2018-06-17T23:59:10.231Z,9.60
